Time;durP1;ratioP1;P1;durP2;ratioP2;P2;SDS_P1;SDS_P2;PMS_P1;PMS_P2;Temp;Humidity;BMP_temperature;BMP_pressure;BME280_temperature;BME280_humidity;BME280_pressure;Samples;Min_cycle;Max_cycle;Signal;HPM_P1;HPM_P2
2022/05/17 00:02:02;;;;;;;;;;;;;;;;;;5035439;28;19916;-71
2022/05/17 00:04:28;;;;;;;;;;;;;;;;;;5053356;28;19909;-71
2022/05/17 00:06:53;;;;;;;;;;;;;;;;;;5053313;28;20365;-71
2022/05/17 00:09:19;;;;;;;;;;;;;;;;;;5053842;28;20360;-73
2022/05/17 00:11:45;;;;;;;;;;;;;;;;;;5053545;28;19905;-71
2022/05/17 00:14:11;;;;;;;;;;;;;;;;;;5053280;28;19904;-71
2022/05/17 00:16:37;;;;;;;;;;;;;;;;;;5053251;28;20000;-72
2022/05/17 00:19:03;;;;;;;;;;;;;;;;;;5053180;28;19905;-72
2022/05/17 00:21:29;;;;;;;;;;;;;;;;;;5035290;28;20003;-72
2022/05/17 00:23:55;;;;;;;;;;;;;;;;;;5053174;28;19912;-71
2022/05/17 00:26:21;;;;;;;;;;;;;;;;;;5053711;28;19911;-72
2022/05/17 00:28:47;;;;;;;;;;;;;;;;;;5053138;28;20365;-71
2022/05/17 00:31:13;;;;;;;;;;;;;;;;;;5053103;28;19927;-71
2022/05/17 00:33:38;;;;;;;;;;;;;;;;;;5053077;28;19912;-73
2022/05/17 00:36:04;;;;;;;;;;;;;;;;;;5053617;28;19904;-72
2022/05/17 00:38:30;;;;;;;;;;;;;;;;;;5054457;28;19954;-71
2022/05/17 00:40:56;;;;;;;;;;;;;;;;;;5056622;28;19970;-71
2022/05/17 00:43:22;;;;;;;;;;;;;;;;;;5056644;28;19905;-71
2022/05/17 00:45:48;;;;;;;;;;;;;;;;;;5038695;28;19959;-72
2022/05/17 00:48:14;;;;;;;;;;;;;;;;;;5056583;28;19911;-71
2022/05/17 00:50:40;;;;;;;;;;;;;;;;;;5057086;28;19948;-73
2022/05/17 00:53:06;;;;;;;;;;;;;;;;;;5056501;28;19909;-72
2022/05/17 00:55:31;;;;;;;;;;;;;;;;;;5056447;28;19950;-72
2022/05/17 00:57:57;;;;;;;;;;;;;;;;;;5056673;28;19904;-72
2022/05/17 01:00:24;;;;;;;;;;;;;;;;;;5056283;28;19916;-71
2022/05/17 01:02:50;;;;;;;;;;;;;;;;;;5038385;28;19905;-72
2022/05/17 01:05:15;;;;;;;;;;;;;;;;;;5056557;28;19912;-71
2022/05/17 01:07:41;;;;;;;;;;;;;;;;;;5038333;28;19939;-71
2022/05/17 01:10:07;;;;;;;;;;;;;;;;;;5056532;28;19950;-71
2022/05/17 01:12:33;;;;;;;;;;;;;;;;;;5056183;28;20342;-71
2022/05/17 01:15:00;;;;;;;;;;;;;;;;;;5038146;28;19904;-71
2022/05/17 01:17:26;;;;;;;;;;;;;;;;;;5056357;28;20422;-72
2022/05/17 01:19:52;;;;;;;;;;;;;;;;;;5055976;28;19908;-71
2022/05/17 01:22:18;;;;;;;;;;;;;;;;;;5056110;28;19912;-71
2022/05/17 01:24:44;;;;;;;;;;;;;;;;;;5055718;28;20006;-72
2022/05/17 01:27:10;;;;;;;;;;;;;;;;;;5056098;28;19912;-71
2022/05/17 01:29:35;;;;;;;;;;;;;;;;;;5056093;28;20312;-72
2022/05/17 01:32:01;;;;;;;;;;;;;;;;;;5055783;28;19904;-73
2022/05/17 01:34:27;;;;;;;;;;;;;;;;;;5055723;28;19912;-71
2022/05/17 01:36:53;;;;;;;;;;;;;;;;;;5055974;28;19908;-72
2022/05/17 01:39:19;;;;;;;;;;;;;;;;;;5055690;28;19909;-71
2022/05/17 01:41:45;;;;;;;;;;;;;;;;;;5056080;28;20361;-72
2022/05/17 01:44:11;;;;;;;;;;;;;;;;;;5055847;28;19905;-72
2022/05/17 01:46:37;;;;;;;;;;;;;;;;;;5055495;28;20341;-72
2022/05/17 01:49:03;;;;;;;;;;;;;;;;;;5055238;28;19905;-71
2022/05/17 01:51:29;;;;;;;;;;;;;;;;;;5055370;28;19911;-71
2022/05/17 01:53:54;;;;;;;;;;;;;;;;;;5055366;28;20365;-72
2022/05/17 01:56:20;;;;;;;;;;;;;;;;;;5037358;28;19905;-71
2022/05/17 01:58:46;;;;;;;;;;;;;;;;;;5037392;28;20289;-72
2022/05/17 02:01:12;;;;;;;;;;;;;;;;;;5055160;28;20282;-72
2022/05/17 02:03:38;;;;;;;;;;;;;;;;;;5055202;28;19916;-72
2022/05/17 02:06:04;;;;;;;;;;;;;;;;;;5055142;28;19905;-72
2022/05/17 02:08:30;;;;;;;;;;;;;;;;;;5055354;28;19904;-70
2022/05/17 02:10:56;;;;;;;;;;;;;;;;;;5055026;28;19905;-72
2022/05/17 02:13:22;;;;;;;;;;;;;;;;;;5037143;28;20377;-70
2022/05/17 02:15:48;;;;;;;;;;;;;;;;;;5054864;28;19947;-72
2022/05/17 02:18:13;;;;;;;;;;;;;;;;;;5054908;28;19959;-70
2022/05/17 02:20:39;;;;;;;;;;;;;;;;;;5054751;28;19909;-71
2022/05/17 02:23:07;;;;;;;;;;;;;;;;;;5055358;28;20348;-71
2022/05/17 02:25:33;;;;;;;;;;;;;;;;;;5054382;28;19947;-71
2022/05/17 02:27:59;;;;;;;;;;;;;;;;;;5054697;28;19908;-72
2022/05/17 02:30:25;;;;;;;;;;;;;;;;;;5054622;28;19911;-71
2022/05/17 02:32:51;;;;;;;;;;;;;;;;;;5054589;28;19904;-71
2022/05/17 02:35:16;;;;;;;;;;;;;;;;;;5054829;28;19911;-73
2022/05/17 02:37:42;;;;;;;;;;;;;;;;;;5054479;28;20041;-71
2022/05/17 02:40:08;;;;;;;;;;;;;;;;;;5054382;28;19979;-72
2022/05/17 02:42:34;;;;;;;;;;;;;;;;;;5054943;28;19905;-71
2022/05/17 02:45:00;;;;;;;;;;;;;;;;;;5054346;28;20373;-71
2022/05/17 02:47:26;;;;;;;;;;;;;;;;;;5054311;28;19905;-72
2022/05/17 02:49:52;;;;;;;;;;;;;;;;;;5054810;28;19959;-72
2022/05/17 02:52:18;;;;;;;;;;;;;;;;;;5054512;28;19909;-72
2022/05/17 02:54:44;;;;;;;;;;;;;;;;;;5036355;28;20324;-70
2022/05/17 02:57:10;;;;;;;;;;;;;;;;;;5054452;28;19904;-72
2022/05/17 02:59:36;;;;;;;;;;;;;;;;;;5054118;28;20316;-72
2022/05/17 03:02:02;;;;;;;;;;;;;;;;;;5035445;28;19908;-70
2022/05/17 03:04:28;;;;;;;;;;;;;;;;;;5054361;28;19909;-71
2022/05/17 03:06:54;;;;;;;;;;;;;;;;;;5054017;28;19912;-71
2022/05/17 03:09:19;;;;;;;;;;;;;;;;;;5053999;28;19905;-71
2022/05/17 03:11:45;;;;;;;;;;;;;;;;;;5053938;28;19905;-72
2022/05/17 03:14:11;;;;;;;;;;;;;;;;;;5054458;28;19999;-71
2022/05/17 03:16:37;;;;;;;;;;;;;;;;;;5053748;28;19905;-72
2022/05/17 03:19:03;;;;;;;;;;;;;;;;;;5053814;28;19905;-72
2022/05/17 03:21:29;;;;;;;;;;;;;;;;;;5053975;28;19908;-71
2022/05/17 03:23:55;;;;;;;;;;;;;;;;;;5053562;28;19912;-72
2022/05/17 03:26:21;;;;;;;;;;;;;;;;;;5054351;28;20341;-71
2022/05/17 03:28:47;;;;;;;;;;;;;;;;;;5053981;28;19904;-71
2022/05/17 03:31:13;;;;;;;;;;;;;;;;;;5054219;28;19905;-72
2022/05/17 03:33:38;;;;;;;;;;;;;;;;;;5036071;28;19956;-72
2022/05/17 03:36:04;;;;;;;;;;;;;;;;;;5053616;28;19905;-70
2022/05/17 03:38:30;;;;;;;;;;;;;;;;;;5035741;28;19911;-71
2022/05/17 03:40:58;;;;;;;;;;;;;;;;;;5053538;28;20301;-71
2022/05/17 03:43:24;;;;;;;;;;;;;;;;;;5053850;28;20318;-73
2022/05/17 03:45:50;;;;;;;;;;;;;;;;;;5053492;28;19959;-72
2022/05/17 03:48:16;;;;;;;;;;;;;;;;;;5053745;28;19905;-72
2022/05/17 03:50:42;;;;;;;;;;;;;;;;;;5053469;28;20261;-72
2022/05/17 03:53:08;;;;;;;;;;;;;;;;;;5053491;28;19909;-71
2022/05/17 03:55:34;;;;;;;;;;;;;;;;;;5054014;28;19943;-71
2022/05/17 03:58:00;;;;;;;;;;;;;;;;;;5035527;28;19905;-71
2022/05/17 04:00:26;;;;;;;;;;;;;;;;;;5053557;28;19952;-71
2022/05/17 04:02:52;;;;;;;;;;;;;;;;;;5053351;28;20285;-71
2022/05/17 04:05:17;;;;;;;;;;;;;;;;;;5053353;28;19905;-70
2022/05/17 04:07:43;;;;;;;;;;;;;;;;;;5035455;28;20258;-70
2022/05/17 04:10:09;;;;;;;;;;;;;;;;;;5053287;28;19905;-72
2022/05/17 04:12:35;;;;;;;;;;;;;;;;;;5054906;28;19905;-72
2022/05/17 04:15:01;;;;;;;;;;;;;;;;;;5057132;28;19912;-71
2022/05/17 04:17:27;;;;;;;;;;;;;;;;;;5057443;28;20070;-72
2022/05/17 04:19:53;;;;;;;;;;;;;;;;;;5039238;28;19911;-71
2022/05/17 04:22:19;;;;;;;;;;;;;;;;;;5056993;28;19915;-74
2022/05/17 04:24:45;;;;;;;;;;;;;;;;;;5056760;28;20361;-73
2022/05/17 04:27:12;;;;;;;;;;;;;;;;;;5056987;28;19916;-73
2022/05/17 04:29:38;;;;;;;;;;;;;;;;;;5039124;28;20000;-74
2022/05/17 04:32:04;;;;;;;;;;;;;;;;;;5056932;28;19947;-72
2022/05/17 04:34:31;;;;;;;;;;;;;;;;;;5057422;28;19911;-74
2022/05/17 04:36:57;;;;;;;;;;;;;;;;;;5056851;28;19957;-72
2022/05/17 04:39:24;;;;;;;;;;;;;;;;;;5056835;28;19905;-74
2022/05/17 04:41:50;;;;;;;;;;;;;;;;;;5056966;28;19974;-74
2022/05/17 04:44:16;;;;;;;;;;;;;;;;;;5056639;28;20365;-74
2022/05/17 04:46:41;;;;;;;;;;;;;;;;;;5056953;28;19912;-74
2022/05/17 04:49:08;;;;;;;;;;;;;;;;;;5056573;28;19904;-74
2022/05/17 04:51:34;;;;;;;;;;;;;;;;;;5056601;28;19904;-74
2022/05/17 04:54:00;;;;;;;;;;;;;;;;;;5056833;28;19905;-74
2022/05/17 04:56:26;;;;;;;;;;;;;;;;;;5056483;28;19905;-74
2022/05/17 04:58:52;;;;;;;;;;;;;;;;;;5038569;28;19939;-75
2022/05/17 05:01:18;;;;;;;;;;;;;;;;;;5056338;28;19959;-72
2022/05/17 05:03:43;;;;;;;;;;;;;;;;;;5056334;28;20416;-73
2022/05/17 05:06:09;;;;;;;;;;;;;;;;;;5056580;28;19909;-74
2022/05/17 05:08:35;;;;;;;;;;;;;;;;;;5056490;28;19905;-73
2022/05/17 05:11:01;;;;;;;;;;;;;;;;;;5056212;28;19947;-74
2022/05/17 05:13:27;;;;;;;;;;;;;;;;;;5056167;28;19905;-74
2022/05/17 05:15:56;;;;;;;;;;;;;;;;;;5056054;28;19905;-74
2022/05/17 05:18:22;;;;;;;;;;;;;;;;;;5056048;28;19954;-73
2022/05/17 05:20:47;;;;;;;;;;;;;;;;;;5055951;28;19913;-74
2022/05/17 05:23:13;;;;;;;;;;;;;;;;;;5056417;28;19957;-73
2022/05/17 05:25:39;;;;;;;;;;;;;;;;;;5054867;28;19917;-74
2022/05/17 05:28:05;;;;;;;;;;;;;;;;;;5055910;28;19909;-74
2022/05/17 05:30:31;;;;;;;;;;;;;;;;;;5055886;28;19905;-72
2022/05/17 05:32:57;;;;;;;;;;;;;;;;;;5056309;28;19915;-75
2022/05/17 05:35:25;;;;;;;;;;;;;;;;;;5055725;28;19911;-74
2022/05/17 05:37:51;;;;;;;;;;;;;;;;;;5056274;28;19945;-75
2022/05/17 05:40:17;;;;;;;;;;;;;;;;;;5055868;28;20316;-73
2022/05/17 05:42:42;;;;;;;;;;;;;;;;;;5056166;28;20007;-72
2022/05/17 05:45:09;;;;;;;;;;;;;;;;;;5037627;28;19909;-73
2022/05/17 05:47:34;;;;;;;;;;;;;;;;;;5055802;28;19912;-74
2022/05/17 05:50:00;;;;;;;;;;;;;;;;;;5055415;28;19908;-74
2022/05/17 05:52:26;;;;;;;;;;;;;;;;;;5055699;28;19911;-74
2022/05/17 05:54:52;;;;;;;;;;;;;;;;;;5055318;28;19992;-73
2022/05/17 05:57:18;;;;;;;;;;;;;;;;;;5055860;28;19909;-74
2022/05/17 05:59:44;;;;;;;;;;;;;;;;;;5037407;28;19987;-74
2022/05/17 06:02:10;;;;;;;;;;;;;;;;;;5055146;28;20000;-74
2022/05/17 06:04:36;;;;;;;;;;;;;;;;;;5055478;28;19905;-75
2022/05/17 06:07:02;;;;;;;;;;;;;;;;;;5037230;28;19904;-72
2022/05/17 06:09:28;;;;;;;;;;;;;;;;;;5037098;28;19904;-72
2022/05/17 06:11:53;;;;;;;;;;;;;;;;;;5055587;28;19905;-73
2022/05/17 06:14:22;;;;;;;;;;;;;;;;;;5055258;28;19908;-73
2022/05/17 06:16:48;;;;;;;;;;;;;;;;;;5054941;28;19940;-72
2022/05/17 06:19:14;;;;;;;;;;;;;;;;;;5055202;28;19904;-71
2022/05/17 06:21:40;;;;;;;;;;;27.40;79.10;;;;;;5054780;28;19908;-73
2022/05/17 06:24:06;;;;;;;;;;;30.00;83.90;;;;;;5054831;28;20393;-71
2022/05/17 06:26:32;;;;;;;;;;;29.30;86.40;;;;;;5054721;28;19914;-72
2022/05/17 06:28:57;;;;;;;;;;;28.30;86.20;;;;;;5054718;28;19904;-71
2022/05/17 06:31:23;;;;;;;;;;;28.20;88.20;;;;;;5054660;28;20273;-72
2022/05/17 06:33:48;;;;;;;;;;;27.10;89.00;;;;;;5054614;28;19904;-72
2022/05/17 06:36:14;;;;;;;;;;;27.30;91.00;;;;;;5054856;28;19904;-73
2022/05/17 06:38:40;;;;;;;;;;;25.70;90.90;;;;;;5054482;28;19905;-71
2022/05/17 06:41:05;;;;;;;;;;;26.20;91.90;;;;;;5054412;28;19917;-71
2022/05/17 06:43:34;;;;;;;;;;;25.40;92.30;;;;;;5054739;28;20285;-71
2022/05/17 06:46:03;;;;;;;;;;;26.00;93.60;;;;;;5054442;28;19905;-73
2022/05/17 06:48:29;;;;;;;;;;;30.50;88.90;;;;;;5054969;28;20003;-72
2022/05/17 06:50:54;;;;;;;;;;;33.40;83.20;;;;;;5054297;28;19940;-73
2022/05/17 06:53:20;;;;;;;;;;;34.80;76.90;;;;;;5031165;28;19952;-77
2022/05/17 06:55:45;;;;;;;;;;;36.30;73.40;;;;;;5054342;28;19905;-77
2022/05/17 06:58:11;;;;;;;;;;;37.30;68.50;;;;;;5054690;28;19912;-76
2022/05/17 07:00:37;;;;;;;;;;;37.60;65.90;;;;;;5054080;28;19915;-75
2022/05/17 07:03:02;;;;;;;;;;;38.20;62.60;;;;;;5052985;28;19916;-74
2022/05/17 07:05:28;;;;;;;;;;;38.80;60.50;;;;;;5051169;28;20327;-74
2022/05/17 07:07:54;;;;;;;;;;;38.70;59.00;;;;;;5052941;28;20373;-76
2022/05/17 07:13:10;;;;;;;;;;;39.70;56.70;;;;;;5054062;28;20444;-77
2022/05/17 07:15:36;;;;;;;;;;;39.90;54.20;;;;;;5053041;28;20380;-77
2022/05/17 07:18:02;;;;;;;;;;;39.90;53.70;;;;;;5054147;28;19905;-77
2022/05/17 07:20:28;;;;;;;;;;;;;;;;;;5032540;28;19913;-77
2022/05/17 07:22:54;;;;;;;;;;;;;;;;;;5035904;28;20430;-76
2022/05/17 07:25:20;;;;;;;;;;;;;;;;;;5053645;28;20414;-76
2022/05/17 07:27:46;;;;;;;;;;;;;;;;;;5034831;28;20004;-76
2022/05/17 07:30:12;;;;;;;;;;;;;;;;;;5052558;28;19938;-76
2022/05/17 07:32:38;;;;;;;;;;;;;;;;;;5037216;28;19956;-75
2022/05/17 07:35:04;;;;;;;;;;;;;;;;;;5035375;28;20390;-75
2022/05/17 07:37:29;;;;;;;;;;;;;;;;;;5053649;28;19999;-76
2022/05/17 07:39:56;;;;;;;;;;;;;;;;;;5053935;28;19905;-73
2022/05/17 07:42:21;;;;;;;;;;;;;;;;;;5053569;28;19916;-74
2022/05/17 07:44:47;;;;;;;;;;;;;;;;;;5052666;28;19908;-76
2022/05/17 07:47:13;;;;;;;;;;;;;;;;;;5055574;28;19912;-76
2022/05/17 07:49:39;;;;;;;;;;;;;;;;;;5058127;28;19913;-77
2022/05/17 07:52:05;;;;;;;;;;;;;;;;;;5046878;28;19956;-73
2022/05/17 07:54:31;;;;;;;;;;;;;;;;;;5057051;28;19915;-74
2022/05/17 07:56:57;;;;;;;;;;;;;;;;;;5041897;28;19988;-74
2022/05/17 07:59:23;;;;;;;;;;;;;;;;;;5060063;28;19947;-73
2022/05/17 08:01:49;;;;;;;;;;;;;;;;;;5060484;28;20279;-73
2022/05/17 08:04:15;;;;;;;;;;;;;;;;;;5060001;28;20334;-74
2022/05/17 08:06:41;;;;;;;;;;;;;;;;;;5042133;28;19911;-73
2022/05/17 08:09:07;;;;;;;;;;;;;;;;;;5060620;28;19911;-72
2022/05/17 08:11:33;;;;;;;;;;;;;;;;;;5059956;28;19905;-72
2022/05/17 08:13:59;;;;;;;;;;;;;;;;;;5060227;28;20274;-72
2022/05/17 08:16:25;;;;;;;;;;;;;;;;;;5059815;28;19911;-73
2022/05/17 08:18:50;;;;;;;;;;;;;;;;;;5059945;28;19912;-72
2022/05/17 08:21:16;;;;;;;;;;;;;;;;;;5041924;28;19999;-73
2022/05/17 08:23:43;;;;;;;;;;;;;;;;;;5060220;28;19904;-71
2022/05/17 08:28:55;;;;;;;;;;;;;;;;;;5060286;28;19927;-73
2022/05/17 08:31:21;;;;;;;;;;;;;;;;;;5041855;28;20435;-74
2022/05/17 08:33:47;;;;;;;;;;;;;;;;;;5060363;28;20015;-73
2022/05/17 08:36:14;;;;;;;;;;;;;;;;;;5060521;28;19975;-74
2022/05/17 08:38:40;;;;;;;;;;;;;;;;;;5059755;28;19908;-73
2022/05/17 08:41:06;;;;;;;;;;;;;;;;;;5059976;28;19912;-72
2022/05/17 08:43:32;;;;;;;;;;;;;;;;;;5060412;28;19971;-72
2022/05/17 08:45:58;;;;;;;;;;;;;;;;;;5041761;28;20404;-74
2022/05/17 08:48:24;;;;;;;;;;;;;;;;;;5059613;28;19904;-71
2022/05/17 08:50:51;;;;;;;;;;;;;;;;;;5058019;28;20403;-77
2022/05/17 08:53:16;;;;;;;;;;;;;;;;;;5060176;28;19905;-72
2022/05/17 08:55:42;;;;;;;;;;;;;;;;;;5059873;28;20004;-78
2022/05/17 08:58:08;;;;;;;;;;;;;;;;;;5058948;28;20368;-74
2022/05/17 09:00:34;;;;;;;;;;;;;;;;;;5054436;28;19917;-74
2022/05/17 09:03:00;;;;;;;;;;;;;;;;;;5033894;28;19908;-73
2022/05/17 09:05:26;;;;;;;;;;;;;;;;;;5052146;28;19916;-74
2022/05/17 09:07:52;;;;;;;;;;;;;;;;;;5037999;28;19911;-76
2022/05/17 09:10:18;;;;;;;;;;;;;;;;;;5056839;28;20269;-73
2022/05/17 09:12:44;;;;;;;;;;;;;;;;;;5055896;28;19993;-73
2022/05/17 09:15:10;;;;;;;;;;;;;;;;;;5055667;28;19911;-75
2022/05/17 09:17:35;;;;;;;;;;;;;;;;;;5054555;28;19912;-73
2022/05/17 09:20:02;;;;;;;;;;;;;;;;;;5044175;28;19905;-76
2022/05/17 09:22:28;;;;;;;;;;;;;;;;;;5051472;28;20400;-79
2022/05/17 09:24:53;;;;;;;;;;;;;;;;;;5055989;28;19916;-78
2022/05/17 09:27:19;;;;;;;;;;;;;;;;;;5055854;28;19935;-73
2022/05/17 09:29:45;;;;;;;;;;;;;;;;;;5054713;28;20000;-76
2022/05/17 09:32:11;;;;;;;;;;;;;;;;;;5056068;28;19912;-76
2022/05/17 09:34:37;;;;;;;;;;;;;;;;;;5056184;28;19905;-76
2022/05/17 09:37:03;;;;;;;;;;;;;;;;;;5054803;28;19904;-74
2022/05/17 09:39:30;;;;;;;;;;;;;;;;;;5054462;28;19909;-72
2022/05/17 09:41:57;;;;;;;;;;;;;;;;;;5055767;28;19961;-74
2022/05/17 09:44:23;;;;;;;;;;;;;;;;;;5037272;28;19932;-74
2022/05/17 09:46:48;;;;;;;;;;;;;;;;;;5055558;28;20357;-75
2022/05/17 09:54:44;;;;;;;;;;;;;;;;;;5054721;28;19912;-74
2022/05/17 09:57:10;;;;;;;;;;;;;;;;;;5054206;28;20297;-76
2022/05/17 09:59:37;;;;;;;;;;;;;;;;;;5056151;28;19955;-75
2022/05/17 10:02:02;;;;;;;;;;;;;;;;;;5055193;28;19923;-74
2022/05/17 10:04:28;;;;;;;;;;;;;;;;;;5053430;28;19909;-74
2022/05/17 10:06:56;;;;;;;;;;;;;;;;;;5055742;28;19912;-76
2022/05/17 10:09:22;;;;;;;;;;;;;;;;;;5055415;28;19908;-75
2022/05/17 10:11:48;;;;;;;;;;;;;;;;;;5054799;28;20442;-75
2022/05/17 10:14:14;;;;;;;;;;;;;;;;;;5038878;28;19905;-74
2022/05/17 10:16:40;;;;;;;;;;;;;;;;;;5036914;28;20292;-74
2022/05/17 10:19:08;;;;;;;;;;;;;;;;;;5049310;28;19912;-75
2022/05/17 10:21:34;;;;;;;;;;;;;;;;;;5036520;28;19913;-74
2022/05/17 10:24:00;;;;;;;;;;;;;;;;;;5054862;28;19966;-74
2022/05/17 10:26:26;;;;;;;;;;;;;;;;;;5054083;28;20297;-72
2022/05/17 10:28:52;;;;;;;;;;;;;;;;;;5035392;28;19909;-73
2022/05/17 10:31:18;;;;;;;;;;;;;;;;;;5054366;28;19904;-72
2022/05/17 10:33:44;;;;;;;;;;;;;;;;;;5055391;28;20265;-72
2022/05/17 10:36:10;;;;;;;;;;;;;;;;;;5054738;28;19905;-73
2022/05/17 10:38:35;;;;;;;;;;;;;;;;;;5054581;28;19904;-73
2022/05/17 10:41:01;;;;;;;;;;;;;;;;;;5054726;28;20273;-73
2022/05/17 10:43:27;;;;;;;;;;;;;;;;;;5054428;28;19904;-72
2022/05/17 10:45:53;;;;;;;;;;;;;;;;;;5054438;28;19912;-73
2022/05/17 10:48:19;;;;;;;;;;;;;;;;;;5054343;28;19948;-72
2022/05/17 10:50:45;;;;;;;;;;;;;;;;;;5054346;28;19911;-72
2022/05/17 10:53:11;;;;;;;;;;;;;;;;;;5054543;28;20316;-72
2022/05/17 10:55:37;;;;;;;;;;;;;;;;;;5036341;28;20333;-72
2022/05/17 10:58:03;;;;;;;;;;;;;;;;;;5054223;28;19955;-72
2022/05/17 11:00:29;;;;;;;;;;;;;;;;;;5054068;28;19909;-72
2022/05/17 11:02:58;;;;;;;;;;;39.70;53.20;;;;;;5054151;28;20015;-72
2022/05/17 11:05:38;;;;;;;;;;;30.00;64.10;;;;;;5054392;28;19909;-73
2022/05/17 11:08:04;;;;;;;;;;;29.80;63.40;;;;;;5054077;28;20015;-73
2022/05/17 11:10:30;;;;;;;;;;;30.10;63.60;;;;;;5036142;28;20389;-73
2022/05/17 11:13:16;;;;;;;;;;;30.10;64.30;;;;;;5053970;28;19905;-72
2022/05/17 11:15:45;;;;;;;;;;;30.20;63.20;;;;;;5013293;28;20003;-74
2022/05/17 11:18:17;;;;;;;;;;;30.40;63.20;;;;;;5053863;28;20361;-73
2022/05/17 11:20:52;;;;;;;;;;;30.50;64.00;;;;;;5053749;28;19909;-72
2022/05/17 11:23:36;;;;;;;;;;;30.60;63.30;;;;;;5053767;28;19954;-73
2022/05/17 11:26:20;;;;;;;;;;;30.50;63.30;;;;;;5054077;28;19917;-73
2022/05/17 11:28:54;;;;;;;;;;;30.50;63.30;;;;;;5053765;28;19955;-73
2022/05/17 11:31:29;;;;;;;;;;;30.70;63.30;;;;;;5054329;28;20004;-73
2022/05/17 11:34:13;;;;;;;;;;;31.00;63.60;;;;;;5054044;28;19912;-72
2022/05/17 11:36:43;;;;;;;;;;;31.10;63.00;;;;;;5054229;28;19908;-71
2022/05/17 11:39:29;;;;;;;;;;;30.80;63.20;;;;;;5053682;28;19916;-74
2022/05/17 11:42:04;;;;;;;;;;;30.40;64.20;;;;;;5053422;28;20400;-72
2022/05/17 11:44:38;;;;;;;;;;;30.40;64.00;;;;;;5053775;28;19948;-73
2022/05/17 11:47:24;;;;;;;;;;;30.40;63.40;;;;;;5053846;28;19905;-73
2022/05/17 11:49:49;;;;;;;;;;;30.10;64.90;;;;;;5053365;28;19905;-71
2022/05/17 11:52:21;;;;;;;;;;;29.80;65.70;;;;;;5035611;28;20369;-73
2022/05/17 11:54:48;;;;;;;;;;;29.50;67.30;;;;;;5054095;28;19954;-72
2022/05/17 11:57:16;;;;;;;;;;;29.30;66.70;;;;;;5053753;28;19905;-73
2022/05/17 11:59:43;;;;;;;;;;;;;;;;;;5053431;28;19905;-72
2022/05/17 12:02:08;;;;;;;;;;;;;;;;;;5053353;28;19912;-73
2022/05/17 12:04:36;;;;;;;;;;;29.00;66.70;;;;;;5053437;28;19905;-72
2022/05/17 12:07:18;;;;;;;;;;;29.00;66.70;;;;;;5035582;28;19999;-73
2022/05/17 12:09:48;;;;;;;;;;;29.10;67.60;;;;;;5053701;28;19912;-74
2022/05/17 12:12:32;;;;;;;;;;;28.90;67.60;;;;;;5053290;28;19912;-71
2022/05/17 12:14:58;;;;;;;;;;;;;;;;;;5053478;28;20415;-73
2022/05/17 12:17:30;;;;;;;;;;;28.60;67.10;;;;;;5053846;28;19909;-73
2022/05/17 12:19:56;;;;;;;;;;;;;;;;;;5053304;28;19940;-72
2022/05/17 12:22:23;;;;;;;;;;;28.60;68.70;;;;;;5053189;28;19959;-73
2022/05/17 12:24:57;;;;;;;;;;;28.50;67.80;;;;;;5053027;28;19917;-72
2022/05/17 12:27:30;;;;;;;;;;;28.80;67.90;;;;;;5053513;28;19904;-73
2022/05/17 12:33:06;;;;;;;;;;;29.10;66.60;;;;;;5053297;28;19916;-72
2022/05/17 12:35:32;;;;;;;;;;;29.50;66.40;;;;;;5057480;28;19952;-73
2022/05/17 12:37:58;;;;;;;;;;;30.00;65.70;;;;;;5056861;28;20005;-74
2022/05/17 12:43:22;;;;;;;;;;;30.30;65.60;;;;;;5057401;28;19986;-71
2022/05/17 12:45:49;;;;;;;;;;;30.40;65.50;;;;;;5056801;28;20383;-73
2022/05/17 12:48:37;;;;;;;;;;;30.70;65.90;;;;;;5056692;28;19905;-74
2022/05/17 12:51:05;;;;;;;;;;;30.80;65.40;;;;;;5045805;28;19905;-72
2022/05/17 12:53:44;;;;;;;;;;;30.40;66.10;;;;;;5056879;28;19905;-74
2022/05/17 12:56:12;;;;;;;;;;;30.40;66.50;;;;;;5056515;28;19951;-74
2022/05/17 12:58:51;;;;;;;;;;;30.40;65.80;;;;;;5057055;28;19911;-73
2022/05/17 13:01:21;;;;;;;;;;;30.40;66.80;;;;;;5056420;28;19909;-73
2022/05/17 13:03:47;;;;;;;;;;;30.30;67.10;;;;;;5056391;28;19905;-73
2022/05/17 13:06:13;;;;;;;;;;;30.30;67.20;;;;;;5056645;28;19911;-74
2022/05/17 13:08:38;;;;;;;;;;;30.10;66.70;;;;;;5056286;28;19908;-73
2022/05/17 13:11:04;;;;;;;;;;;29.90;66.60;;;;;;5056270;28;19904;-72
2022/05/17 13:13:34;;;;;;;;;;;29.80;67.30;;;;;;5056766;28;19912;-72
2022/05/17 13:16:21;;;;;;;;;;;29.90;68.30;;;;;;5056057;28;19955;-72
2022/05/17 13:18:57;;;;;;;;;;;29.90;67.80;;;;;;5037987;28;20348;-72
2022/05/17 13:21:25;;;;;;;;;;;29.80;68.30;;;;;;5055891;28;19908;-72
2022/05/17 13:23:51;;;;;;;;;;;29.70;68.20;;;;;;5055855;28;19920;-72
2022/05/17 13:26:19;;;;;;;;;;;;;;;;;;5056593;28;19908;-72
2022/05/17 13:28:44;;;;;;;;;;;30.20;68.10;;;;;;5055970;28;19905;-73
2022/05/17 13:31:18;;;;;;;;;;;29.90;67.30;;;;;;5056155;28;19996;-72
2022/05/17 13:33:55;;;;;;;;;;;29.70;68.10;;;;;;5055754;28;20323;-72
2022/05/17 13:36:33;;;;;;;;;;;29.70;67.90;;;;;;5037829;28;19905;-72
2022/05/17 13:38:58;;;;;;;;;;;29.80;68.20;;;;;;5055711;28;19982;-72
2022/05/17 13:41:32;;;;;;;;;;;30.10;68.30;;;;;;5055889;28;20353;-72
2022/05/17 13:43:58;;;;;;;;;;;30.40;67.40;;;;;;5055649;28;20376;-72
2022/05/17 13:46:34;;;;;;;;;;;30.60;68.40;;;;;;5054836;28;19905;-73
2022/05/17 13:49:16;;;;;;;;;;;30.60;68.30;;;;;;5055547;28;19936;-72
2022/05/17 13:51:53;;;;;;;;;;;30.20;68.50;;;;;;5055791;28;19905;-72
2022/05/17 13:54:31;;;;;;;;;;;30.00;68.50;;;;;;5055762;28;20003;-73
2022/05/17 13:57:03;;;;;;;;;;;29.90;69.00;;;;;;5055734;28;20361;-72
2022/05/17 13:59:29;;;;;;;;;;;29.90;69.40;;;;;;5055383;28;19970;-73
2022/05/17 14:01:56;;;;;;;;;;;29.80;69.70;;;;;;5055847;28;19912;-73
2022/05/17 14:04:38;;;;;;;;;;;29.70;70.40;;;;;;5055270;28;19905;-72
2022/05/17 14:07:16;;;;;;;;;;;29.50;70.30;;;;;;5055508;28;19905;-72
2022/05/17 14:12:26;;;;;;;;;;;29.60;71.50;;;;;;5055147;28;19950;-72
2022/05/17 14:14:54;;;;;;;;;;;29.60;72.20;;;;;;5055694;28;19908;-73
2022/05/17 14:17:26;;;;;;;;;;;29.70;72.20;;;;;;5055031;28;20361;-73
2022/05/17 14:19:59;;;;;;;;;;;29.60;72.10;;;;;;5055328;28;19905;-72
2022/05/17 14:22:29;;;;;;;;;;;29.00;72.70;;;;;;5055129;28;19967;-72
2022/05/17 14:24:54;;;;;;;;;;;28.30;73.50;;;;;;5054707;28;19923;-72
2022/05/17 14:27:20;;;;;;;;;;;28.30;74.40;;;;;;5054820;28;19905;-72
2022/05/17 14:29:45;;;;;;;;;;;28.40;74.30;;;;;;5054822;28;19991;-73
2022/05/17 14:32:12;;;;;;;;;;;28.50;74.40;;;;;;5054763;28;19911;-73
2022/05/17 14:34:38;;;;;;;;;;;28.30;74.90;;;;;;5054694;28;19904;-73
2022/05/17 14:37:04;;;;;;;;;;;27.80;76.00;;;;;;5055151;28;19905;-72
2022/05/17 14:39:30;;;;;;;;;;;27.80;76.50;;;;;;5054610;28;20362;-71
2022/05/17 14:41:56;;;;;;;;;;;28.10;76.80;;;;;;5054476;28;19915;-72
2022/05/17 14:44:22;;;;;;;;;;;28.40;75.50;;;;;;5054473;28;20007;-72
2022/05/17 14:46:48;;;;;;;;;;;28.80;74.20;;;;;;5036562;28;19958;-73
2022/05/17 14:49:15;;;;;;;;;;;28.70;72.90;;;;;;5054385;28;19909;-72
2022/05/17 14:51:43;;;;;;;;;;;28.90;72.00;;;;;;5054380;28;20424;-72
2022/05/17 14:54:08;;;;;;;;;;;29.00;71.50;;;;;;5054666;28;20430;-72
2022/05/17 14:56:34;;;;;;;;;;;28.90;71.60;;;;;;5053475;28;19935;-72
2022/05/17 14:59:00;;;;;;;;;;;29.00;72.00;;;;;;5036221;28;19939;-72
2022/05/17 15:01:26;;;;;;;;;;;29.00;71.70;;;;;;5054147;28;19931;-72
2022/05/17 15:03:55;;;;;;;;;;;28.90;72.30;;;;;;5036090;28;20356;-72
2022/05/17 15:06:20;;;;;;;;;;;29.20;72.20;;;;;;5054092;28;19908;-73
2022/05/17 15:08:47;;;;;;;;;;;29.30;71.50;;;;;;5054365;28;19944;-72
2022/05/17 15:11:12;;;;;;;;;;;29.10;72.00;;;;;;5054013;28;19911;-72
2022/05/17 15:13:40;;;;;;;;;;;29.10;72.80;;;;;;5053985;28;19996;-72
2022/05/17 15:16:08;;;;;;;;;;;28.90;73.00;;;;;;5053890;28;20358;-72
2022/05/17 15:18:37;;;;;;;;;;;28.70;74.50;;;;;;5054189;28;19905;-72
2022/05/17 15:21:03;;;;;;;;;;;28.40;74.50;;;;;;5053819;28;19908;-72
2022/05/17 15:23:31;;;;;;;;;;;28.50;74.90;;;;;;5053716;28;19958;-73
2022/05/17 15:25:58;;;;;;;;;;;28.70;75.30;;;;;;5054431;28;19904;-72
2022/05/17 15:28:23;;;;;;;;;;;28.90;75.30;;;;;;5053777;28;20419;-72
2022/05/17 15:30:49;;;;;;;;;;;29.00;75.30;;;;;;5054018;28;19909;-72
2022/05/17 15:33:16;;;;;;;;;;;29.00;75.40;;;;;;5053694;28;19911;-72
2022/05/17 15:35:42;;;;;;;;;;;28.80;76.10;;;;;;5054246;28;19904;-72
2022/05/17 15:38:13;;;;;;;;;;;28.60;77.00;;;;;;5053623;28;19904;-73
2022/05/17 15:40:39;;;;;;;;;;;;;;;;;;5053834;28;20357;-72
2022/05/17 15:43:05;;;;;;;;;;;28.30;76.60;;;;;;5053867;28;20088;-72
2022/05/17 15:45:30;;;;;;;;;;;28.10;76.30;;;;;;5053865;28;19904;-72
2022/05/17 15:53:28;;;;;;;;;;;27.80;76.80;;;;;;5053608;28;20434;-72
2022/05/17 15:55:58;;;;;;;;;;;27.70;76.50;;;;;;5053727;28;19912;-72
2022/05/17 15:58:28;;;;;;;;;;;27.70;76.80;;;;;;5053370;28;20354;-72
2022/05/17 16:00:54;;;;;;;;;;;27.70;76.90;;;;;;5053390;28;19915;-71
2022/05/17 16:03:42;;;;;;;;;;;27.60;76.50;;;;;;5053428;28;19905;-72
2022/05/17 16:06:08;;;;;;;;;;;27.60;75.80;;;;;;5035269;28;20376;-71
2022/05/17 16:08:34;;;;;;;;;;;27.50;75.10;;;;;;5054747;28;19905;-72
2022/05/17 16:13:44;;;;;;;;;;;;;;;;;;5057992;28;20277;-72
2022/05/17 16:16:10;;;;;;;;;;;27.30;74.30;;;;;;5057270;28;19908;-72